Change the Weather History Date:

Friday, November 15, 2013

  Actual Average (KHAI) Record (KHAI)
Temperature  
Mean Temperature 42 °F -  
Max Temperature 48 °F 47 °F 69 °F (1953)
Min Temperature 35 °F 30 °F 16 °F (1959)
Degree Days  
Heating Degree Days 24    
Moisture  
Dew Point 27 °F    
Average Humidity 55    
Maximum Humidity 65    
Minimum Humidity 46    
Precipitation  
Precipitation 0.00 in - - ()
Sea Level Pressure  
Sea Level Pressure 30.01 in    
Wind  
Wind Speed 11 mph (SSW)    
Max Wind Speed 15 mph    
Max Gust Speed 17 mph    
Visibility 10 miles    
Events      
Averages and records for this station are not official NWS values.
T = Trace of Precipitation, MM = Missing Value Source: NWS Daily Summary

Daily Weather History Graph

Daily Weather History Graph

Search for Another Location

Airport or City:

Trip Planner

Search our weather history database for the weather conditions in past years. The results will help you decide how hot, cold, wet, or windy it might be!

Date:

Astronomy

Nov. 15, 2013 Rise Set
Actual Time 7:31 AM EST 5:20 PM EST
Civil Twilight 7:01 AM EST 5:50 PM EST
Nautical Twilight 6:27 AM EST 6:24 PM EST
Astronomical Twilight 5:54 AM EST 6:57 PM EST
Moon 4:18 PM EST (11/15) 5:25 AM EST (11/15)
Length of Visible Light 10h 49m
Length of Day
9h 49m
Waxing Gibbous, 96% of the Moon is Illuminated
Nov 15
Waxing Gibbous
Nov 17
Full
Nov 25
Last Quarter
Dec 2
New
Dec 9
First Quarter

Hourly Weather History & Observations

Time (EST) Temp. Windchill Dew Point Humidity Pressure Visibility Wind Dir Wind Speed Gust Speed Precip Events Conditions
12:15 AM 39.2 °F 32.0 °F 24.8 °F 56% 30.02 in 10.0 mi SW 11.5 mph - N/A   Clear
12:34 AM 37.4 °F 29.8 °F 24.8 °F 60% 30.02 in 10.0 mi SW 11.5 mph - N/A   Clear
12:55 AM 37.4 °F 29.3 °F 24.8 °F 60% 30.02 in 10.0 mi SW 12.7 mph - N/A   Clear
1:15 AM 39.2 °F 31.6 °F 23.0 °F 52% 30.01 in 10.0 mi SW 12.7 mph - N/A   Clear
1:34 AM 39.2 °F 31.6 °F 23.0 °F 52% 30.01 in 10.0 mi SW 12.7 mph - N/A   Clear
1:55 AM 39.2 °F 32.5 °F 23.0 °F 52% 30.01 in 10.0 mi SW 10.4 mph 17.3 mph N/A   Clear
2:15 AM 39.2 °F 31.2 °F 23.0 °F 52% 30.01 in 10.0 mi SW 13.8 mph - N/A   Clear
2:34 AM 39.2 °F 31.6 °F 23.0 °F 52% 30.01 in 10.0 mi SW 12.7 mph - N/A   Clear
2:55 AM 39.2 °F 33.0 °F 24.8 °F 56% 30.01 in 10.0 mi SW 9.2 mph - N/A   Clear
3:15 AM 39.2 °F 32.5 °F 24.8 °F 56% 30.01 in 10.0 mi SW 10.4 mph - N/A   Clear
3:34 AM 39.2 °F 32.5 °F 24.8 °F 56% 30.01 in 10.0 mi SW 10.4 mph - N/A   Clear
3:55 AM 39.2 °F 33.0 °F 24.8 °F 56% 30.00 in 10.0 mi SW 9.2 mph - N/A   Clear
4:15 AM 39.2 °F 33.0 °F 24.8 °F 56% 30.00 in 10.0 mi SSW 9.2 mph - N/A   Clear
4:35 AM 39.2 °F 32.5 °F 24.8 °F 56% 29.99 in 10.0 mi SSW 10.4 mph - N/A   Clear
4:55 AM 39.2 °F 31.6 °F 24.8 °F 56% 30.00 in 10.0 mi SSW 12.7 mph - N/A   Clear
5:15 AM 39.2 °F 32.0 °F 24.8 °F 56% 30.00 in 10.0 mi SW 11.5 mph - N/A   Clear
5:35 AM 39.2 °F 32.5 °F 24.8 °F 56% 30.00 in 10.0 mi SW 10.4 mph - N/A   Clear
5:55 AM 37.4 °F 30.8 °F 24.8 °F 60% 30.00 in 10.0 mi SW 9.2 mph - N/A   Clear
6:14 AM 37.4 °F 30.8 °F 24.8 °F 60% 30.00 in 10.0 mi SSW 9.2 mph - N/A   Clear
6:35 AM 35.6 °F 29.9 °F 24.8 °F 65% 30.00 in 10.0 mi SW 6.9 mph - N/A   Clear
6:55 AM 35.6 °F 29.9 °F 24.8 °F 65% 30.00 in 10.0 mi SSW 6.9 mph - N/A   Clear
7:15 AM 35.6 °F 30.7 °F 24.8 °F 65% 30.01 in 10.0 mi SSW 5.8 mph - N/A   Clear
7:35 AM 35.6 °F 29.2 °F 24.8 °F 65% 30.01 in 10.0 mi SSW 8.1 mph - N/A   Clear
7:55 AM 35.6 °F 28.6 °F 24.8 °F 65% 30.01 in 10.0 mi SSW 9.2 mph - N/A   Clear
8:15 AM 35.6 °F 28.6 °F 24.8 °F 65% 30.02 in 10.0 mi SSW 9.2 mph - N/A   Clear
8:34 AM 37.4 °F 30.8 °F 24.8 °F 60% 30.03 in 10.0 mi SSW 9.2 mph - N/A   Clear
8:55 AM 39.2 °F 33.6 °F 24.8 °F 56% 30.03 in 10.0 mi SSW 8.1 mph - N/A   Clear
9:15 AM 39.2 °F 32.5 °F 24.8 °F 56% 30.03 in 10.0 mi SSW 10.4 mph - N/A   Clear
9:34 AM 42.8 °F 36.2 °F 26.6 °F 53% 30.04 in 10.0 mi SW 12.7 mph - N/A   Clear
9:55 AM 42.8 °F 35.8 °F 26.6 °F 53% 30.03 in 10.0 mi WSW 13.8 mph - N/A   Clear
10:15 AM 42.8 °F 36.2 °F 26.6 °F 53% 30.04 in 10.0 mi SW 12.7 mph - N/A   Clear
10:34 AM 42.8 °F 35.4 °F 26.6 °F 53% 30.04 in 10.0 mi SW 15.0 mph - N/A   Clear
10:55 AM 44.6 °F 38.4 °F 26.6 °F 49% 30.04 in 10.0 mi SW 12.7 mph - N/A   Clear
11:14 AM 42.8 °F 37.0 °F 26.6 °F 53% 30.04 in 10.0 mi SW 10.4 mph - N/A   Clear
11:35 AM 44.6 °F 38.8 °F 26.6 °F 49% 30.03 in 10.0 mi SSW 11.5 mph - N/A   Clear
11:55 AM 44.6 °F 38.1 °F 26.6 °F 49% 30.02 in 10.0 mi SW 13.8 mph - N/A   Clear
12:14 PM 46.4 °F 41.1 °F 28.4 °F 50% 30.02 in 10.0 mi SW 11.5 mph - N/A   Clear
12:35 PM 46.4 °F 40.4 °F 28.4 °F 50% 30.02 in 10.0 mi SSW 13.8 mph - N/A   Clear
12:55 PM 46.4 °F 40.4 °F 28.4 °F 50% 30.00 in 10.0 mi SSW 13.8 mph - N/A   Clear
1:14 PM 48.2 °F - 28.4 °F 46% 29.99 in 10.0 mi SW 11.5 mph - N/A   Mostly Cloudy
1:35 PM 48.2 °F - 28.4 °F 46% 29.99 in 10.0 mi SSW 15.0 mph - N/A   Mostly Cloudy
1:55 PM 48.2 °F - 28.4 °F 46% 29.99 in 10.0 mi SW 11.5 mph - N/A   Mostly Cloudy
2:14 PM 48.2 °F - 28.4 °F 46% 29.98 in 10.0 mi SW 12.7 mph - N/A   Mostly Cloudy
2:35 PM 48.2 °F - 28.4 °F 46% 29.98 in 10.0 mi SW 15.0 mph - N/A   Overcast
2:55 PM 48.2 °F - 28.4 °F 46% 29.98 in 10.0 mi SSW 11.5 mph 16.1 mph N/A   Overcast
3:14 PM 48.2 °F - 28.4 °F 46% 29.98 in 10.0 mi SSW 8.1 mph - N/A   Overcast
3:35 PM 48.2 °F - 28.4 °F 46% 29.98 in 10.0 mi SW 11.5 mph - N/A   Overcast
3:55 PM 48.2 °F - 28.4 °F 46% 29.99 in 10.0 mi SSW 9.2 mph - N/A   Overcast
4:14 PM 48.2 °F - 28.4 °F 46% 29.98 in 10.0 mi SSW 9.2 mph - N/A   Overcast
4:35 PM 48.2 °F - 28.4 °F 46% 29.98 in 10.0 mi SSW 8.1 mph - N/A   Overcast
4:55 PM 46.4 °F 42.9 °F 32.0 °F 57% 29.99 in 10.0 mi SSW 6.9 mph - N/A   Drizzle
5:14 PM 46.4 °F 43.5 °F 30.2 °F 53% 29.99 in 10.0 mi South 5.8 mph - N/A   Overcast
5:34 PM 46.4 °F 42.4 °F 30.2 °F 53% 30.00 in 10.0 mi South 8.1 mph - N/A   Overcast
5:55 PM 46.4 °F 42.4 °F 30.2 °F 53% 30.00 in 10.0 mi South 8.1 mph - N/A   Overcast
6:15 PM 46.4 °F 43.5 °F 30.2 °F 53% 30.00 in 10.0 mi South 5.8 mph - N/A   Overcast
6:34 PM 46.4 °F 43.5 °F 30.2 °F 53% 30.00 in 10.0 mi South 5.8 mph - N/A   Overcast
6:55 PM 46.4 °F 42.9 °F 30.2 °F 53% 30.00 in 10.0 mi South 6.9 mph - N/A   Overcast
7:15 PM 46.4 °F 42.4 °F 30.2 °F 53% 30.01 in 10.0 mi South 8.1 mph - N/A   Overcast
7:34 PM 46.4 °F 42.9 °F 30.2 °F 53% 30.01 in 10.0 mi South 6.9 mph - N/A   Overcast
7:55 PM 46.4 °F 41.9 °F 30.2 °F 53% 30.02 in 10.0 mi SSW 9.2 mph - N/A   Overcast
8:15 PM 46.4 °F 41.9 °F 30.2 °F 53% 30.02 in 10.0 mi South 9.2 mph - N/A   Overcast
8:35 PM 44.6 °F 40.2 °F 30.2 °F 57% 30.02 in 10.0 mi South 8.1 mph - N/A   Overcast
8:55 PM 44.6 °F 39.7 °F 30.2 °F 57% 30.02 in 10.0 mi South 9.2 mph - N/A   Overcast
9:15 PM 44.6 °F 40.2 °F 30.2 °F 57% 30.02 in 10.0 mi SSW 8.1 mph - N/A   Overcast
9:35 PM 44.6 °F 40.7 °F 30.2 °F 57% 30.02 in 10.0 mi South 6.9 mph - N/A   Overcast
9:55 PM 44.6 °F 40.2 °F 30.2 °F 57% 30.02 in 10.0 mi South 8.1 mph - N/A   Overcast
10:15 PM 44.6 °F 40.7 °F 30.2 °F 57% 30.02 in 10.0 mi South 6.9 mph - N/A   Overcast
10:35 PM 44.6 °F 40.2 °F 30.2 °F 57% 30.03 in 10.0 mi SSW 8.1 mph - N/A   Overcast
10:55 PM 42.8 °F 37.5 °F 30.2 °F 61% 30.03 in 10.0 mi South 9.2 mph - N/A   Scattered Clouds
11:14 PM 41.0 °F 35.2 °F 30.2 °F 65% 30.03 in 10.0 mi South 9.2 mph - N/A   Clear
11:35 PM 39.2 °F 35.0 °F 28.4 °F 65% 30.03 in 10.0 mi South 5.8 mph - N/A   Clear
11:55 PM 39.2 °F 34.2 °F 28.4 °F 65% 30.03 in 10.0 mi South 6.9 mph - N/A   Clear